createdAt,value
2023-06-29T00:01:57.582Z,3.30
2023-06-29T00:04:26.810Z,3.13
2023-06-29T00:06:56.365Z,4.57
2023-06-29T00:09:23.679Z,3.47
2023-06-29T00:11:50.879Z,3.83
2023-06-29T00:14:17.596Z,4.30
2023-06-29T00:16:44.449Z,3.28
2023-06-29T00:19:12.871Z,3.47
2023-06-29T00:21:40.069Z,3.67
2023-06-29T00:24:06.960Z,3.22
2023-06-29T00:26:33.589Z,3.15
2023-06-29T00:29:00.032Z,3.60
2023-06-29T00:31:27.727Z,3.65
2023-06-29T00:33:54.441Z,3.78
2023-06-29T00:36:20.968Z,3.67
2023-06-29T00:38:47.635Z,4.53
2023-06-29T00:41:16.348Z,3.95
2023-06-29T00:43:46.587Z,4.00
2023-06-29T00:46:17.835Z,4.03
2023-06-29T00:48:44.427Z,4.05
2023-06-29T00:51:12.486Z,3.92
2023-06-29T00:53:38.997Z,3.65
2023-06-29T00:56:05.779Z,3.80
2023-06-29T00:58:32.348Z,3.55
2023-06-29T01:00:59.069Z,4.28
2023-06-29T01:03:26.484Z,4.20
2023-06-29T01:05:57.311Z,4.07
2023-06-29T01:08:34.147Z,4.03
2023-06-29T01:11:04.419Z,3.65
2023-06-29T01:13:32.267Z,3.75
2023-06-29T01:16:00.817Z,3.95
2023-06-29T01:18:31.519Z,4.07
2023-06-29T01:21:00.293Z,3.90
2023-06-29T01:23:31.145Z,3.90
2023-06-29T01:25:58.530Z,4.05
2023-06-29T01:28:26.875Z,4.55
2023-06-29T01:30:53.416Z,4.13
2023-06-29T01:33:24.685Z,4.30
2023-06-29T01:36:01.214Z,4.40
2023-06-29T01:38:37.485Z,4.60
2023-06-29T01:41:07.307Z,4.43
2023-06-29T01:43:36.002Z,3.88
2023-06-29T01:46:03.924Z,4.50
2023-06-29T01:48:31.291Z,4.30
2023-06-29T01:50:58.120Z,4.35
2023-06-29T01:53:24.665Z,4.25
2023-06-29T01:55:51.137Z,4.15
2023-06-29T01:58:17.597Z,4.30
2023-06-29T02:00:44.160Z,4.00
2023-06-29T02:03:10.780Z,4.30
2023-06-29T02:05:37.407Z,4.10
2023-06-29T02:08:04.181Z,4.30
2023-06-29T02:10:30.789Z,5.10
2023-06-29T02:12:57.236Z,4.13
2023-06-29T02:15:23.750Z,4.40
2023-06-29T02:17:50.265Z,4.32
2023-06-29T02:20:18.461Z,4.50
2023-06-29T02:22:45.002Z,4.78
2023-06-29T02:25:14.342Z,4.53
2023-06-29T02:27:40.910Z,4.30
2023-06-29T02:30:08.006Z,4.32
2023-06-29T02:32:35.279Z,4.70
2023-06-29T02:35:02.028Z,4.78
2023-06-29T02:37:28.716Z,4.50
2023-06-29T02:39:55.249Z,5.20
2023-06-29T02:42:23.335Z,4.57
2023-06-29T02:44:49.819Z,4.90
2023-06-29T02:47:16.352Z,4.60
2023-06-29T02:49:42.897Z,4.55
2023-06-29T02:52:12.075Z,4.70
2023-06-29T02:54:38.658Z,4.40
2023-06-29T02:57:05.452Z,4.82
2023-06-29T02:59:32.086Z,5.10
2023-06-29T03:01:58.571Z,4.05
2023-06-29T03:04:25.060Z,4.38
2023-06-29T03:06:54.155Z,4.57
2023-06-29T03:09:20.716Z,4.90
2023-06-29T03:11:47.172Z,4.65
2023-06-29T03:14:13.719Z,5.38
2023-06-29T03:16:40.449Z,5.18
2023-06-29T03:19:06.962Z,5.25
2023-06-29T03:21:33.475Z,4.53
2023-06-29T03:23:59.941Z,5.45
2023-06-29T03:26:26.478Z,4.57
2023-06-29T03:28:52.981Z,5.15
2023-06-29T03:31:19.652Z,4.50
2023-06-29T03:33:46.305Z,5.00
2023-06-29T03:36:13.710Z,4.32
2023-06-29T03:38:40.264Z,5.15
2023-06-29T03:41:06.890Z,4.78
2023-06-29T03:43:33.658Z,4.70
2023-06-29T03:46:00.537Z,4.75
2023-06-29T03:48:30.074Z,4.60
2023-06-29T03:50:58.188Z,5.25
2023-06-29T03:53:25.019Z,4.90
2023-06-29T03:55:51.617Z,4.93
2023-06-29T03:58:18.181Z,5.50
2023-06-29T04:00:45.343Z,4.88
2023-06-29T04:03:12.434Z,5.20
2023-06-29T04:05:39.089Z,5.15
2023-06-29T04:08:06.192Z,5.15
2023-06-29T04:10:34.055Z,4.85
2023-06-29T04:13:01.011Z,5.43
2023-06-29T04:15:27.579Z,4.65
2023-06-29T04:17:54.410Z,4.57
2023-06-29T04:20:20.977Z,4.82
2023-06-29T04:22:47.572Z,4.57
2023-06-29T04:25:14.167Z,4.78
2023-06-29T04:27:42.832Z,5.10
2023-06-29T04:30:10.099Z,5.40
2023-06-29T04:32:36.599Z,5.45
2023-06-29T04:35:03.219Z,5.22
2023-06-29T04:37:37.701Z,5.30
2023-06-29T04:40:08.205Z,4.97
2023-06-29T04:42:34.934Z,5.22
2023-06-29T04:45:02.013Z,4.63
2023-06-29T04:47:33.294Z,5.50
2023-06-29T04:49:59.963Z,5.50
2023-06-29T04:52:27.763Z,5.13
2023-06-29T04:54:54.272Z,4.95
2023-06-29T04:57:20.763Z,5.15
2023-06-29T04:59:47.283Z,4.75
2023-06-29T05:02:13.763Z,4.80
2023-06-29T05:04:40.283Z,4.47
2023-06-29T05:07:06.839Z,5.07
2023-06-29T05:09:33.311Z,4.78
2023-06-29T05:11:59.822Z,5.50
2023-06-29T05:14:27.633Z,4.65
2023-06-29T05:16:54.416Z,4.60
2023-06-29T05:19:20.940Z,4.55
2023-06-29T05:21:47.461Z,4.97
2023-06-29T05:24:14.009Z,3.95
2023-06-29T05:26:40.536Z,4.03
2023-06-29T05:29:06.997Z,5.18
2023-06-29T05:31:33.634Z,4.60
2023-06-29T05:34:00.337Z,4.00
2023-06-29T05:36:27.767Z,4.18
2023-06-29T05:38:54.499Z,3.90
2023-06-29T05:41:21.023Z,4.25
2023-06-29T05:43:47.540Z,3.83
2023-06-29T05:46:14.105Z,4.10
2023-06-29T05:48:40.648Z,3.92
2023-06-29T05:51:07.178Z,3.70
2023-06-29T05:53:33.868Z,3.70
2023-06-29T05:56:00.534Z,3.97
2023-06-29T05:58:27.057Z,4.00
2023-06-29T06:00:53.609Z,3.53
2023-06-29T06:03:21.675Z,3.47
2023-06-29T06:05:48.300Z,2.83
2023-06-29T06:08:15.826Z,3.33
2023-06-29T06:10:43.007Z,2.90
2023-06-29T06:13:10.397Z,2.80
2023-06-29T06:15:36.950Z,2.47
2023-06-29T06:18:03.686Z,2.63
2023-06-29T06:20:30.399Z,2.90
2023-06-29T06:22:56.923Z,2.80
2023-06-29T06:25:23.480Z,2.60
2023-06-29T06:27:50.008Z,2.10
2023-06-29T06:30:16.664Z,2.10
2023-06-29T06:32:43.312Z,2.10
2023-06-29T06:35:10.308Z,2.55
2023-06-29T06:37:37.473Z,2.28
2023-06-29T06:40:08.656Z,2.22
2023-06-29T06:42:44.699Z,2.17
2023-06-29T06:45:11.843Z,2.40
2023-06-29T06:47:38.527Z,2.25
2023-06-29T06:50:05.625Z,2.15
2023-06-29T06:52:32.224Z,2.10
2023-06-29T06:54:59.160Z,2.40
2023-06-29T06:57:26.221Z,2.50
2023-06-29T06:59:52.734Z,2.10
2023-06-29T07:02:19.407Z,1.88
2023-06-29T07:04:46.163Z,1.90
2023-06-29T07:07:12.783Z,1.80
2023-06-29T07:09:40.064Z,1.80
2023-06-29T07:12:07.263Z,2.13
2023-06-29T07:14:33.864Z,1.67
2023-06-29T07:17:00.693Z,1.85
2023-06-29T07:24:26.593Z,1.80
2023-06-29T07:26:53.119Z,1.83
2023-06-29T07:29:19.572Z,1.58
2023-06-29T07:31:47.265Z,2.10
2023-06-29T07:34:14.024Z,1.80
2023-06-29T07:36:40.609Z,2.30
2023-06-29T07:39:07.205Z,2.03
2023-06-29T07:41:33.802Z,1.63
2023-06-29T07:44:01.101Z,2.22
2023-06-29T07:46:27.614Z,1.88
2023-06-29T07:48:55.767Z,1.73
2023-06-29T07:51:22.791Z,2.60
2023-06-29T07:53:49.452Z,2.03
2023-06-29T07:56:16.028Z,1.70
2023-06-29T07:58:42.716Z,1.80
2023-06-29T08:01:09.403Z,1.80
2023-06-29T08:03:50.978Z,1.75
2023-06-29T08:08:52.501Z,1.73
2023-06-29T08:11:19.235Z,1.50
2023-06-29T08:13:45.735Z,1.42
2023-06-29T08:16:12.335Z,1.40
2023-06-29T08:18:38.864Z,1.60
2023-06-29T08:21:05.368Z,1.63
2023-06-29T08:23:35.263Z,2.28
2023-06-29T08:26:01.930Z,1.80
2023-06-29T08:28:28.406Z,1.58
2023-06-29T08:30:54.961Z,1.80
2023-06-29T08:33:24.739Z,1.77
2023-06-29T08:35:52.534Z,1.80
2023-06-29T08:38:19.159Z,1.63
2023-06-29T08:40:48.921Z,1.70
2023-06-29T08:43:19.453Z,1.65
2023-06-29T08:45:46.930Z,1.60
2023-06-29T08:48:15.205Z,1.58
2023-06-29T08:50:46.666Z,1.58
2023-06-29T08:53:14.442Z,1.85
2023-06-29T08:55:42.988Z,2.22
2023-06-29T08:58:09.713Z,1.83
2023-06-29T09:00:37.098Z,2.15
2023-06-29T09:03:05.020Z,1.80
2023-06-29T09:05:31.581Z,1.48
2023-06-29T09:07:58.285Z,1.85
2023-06-29T09:10:24.886Z,1.55
2023-06-29T09:12:53.732Z,1.85
2023-06-29T09:15:21.652Z,2.58
2023-06-29T09:17:55.372Z,2.50
2023-06-29T09:20:45.832Z,1.80
2023-06-29T09:23:14.051Z,1.98
2023-06-29T09:25:40.766Z,1.70
2023-06-29T09:28:08.587Z,1.80
2023-06-29T09:30:39.037Z,1.60
2023-06-29T09:33:11.371Z,1.70
2023-06-29T09:35:40.626Z,2.03
2023-06-29T09:38:07.675Z,1.60
2023-06-29T09:40:53.275Z,2.08
2023-06-29T09:43:21.832Z,2.13
2023-06-29T09:45:48.481Z,1.63
2023-06-29T09:50:54.770Z,2.33
2023-06-29T09:53:32.543Z,1.98
2023-06-29T09:56:00.812Z,1.90
2023-06-29T09:58:29.320Z,2.35
2023-06-29T10:00:59.496Z,1.70
2023-06-29T10:03:32.538Z,1.83
2023-06-29T10:06:04.408Z,1.90
2023-06-29T10:08:34.015Z,1.85
2023-06-29T10:11:03.927Z,2.47
2023-06-29T10:13:37.708Z,2.03
2023-06-29T10:16:10.091Z,2.35
2023-06-29T10:18:42.189Z,1.88
2023-06-29T10:21:08.973Z,1.90
2023-06-29T10:23:36.175Z,1.85
2023-06-29T10:26:04.983Z,2.13
2023-06-29T10:28:31.675Z,2.00
2023-06-29T10:31:00.546Z,2.13
2023-06-29T10:33:27.826Z,1.90
2023-06-29T10:35:59.182Z,2.00
2023-06-29T10:38:33.651Z,1.90
2023-06-29T10:41:00.564Z,1.90
2023-06-29T10:43:28.572Z,1.80
2023-06-29T10:45:55.408Z,2.13
2023-06-29T10:48:38.420Z,2.05
2023-06-29T10:51:09.790Z,2.28
2023-06-29T10:53:36.506Z,2.20
2023-06-29T10:56:03.086Z,1.88
2023-06-29T10:58:38.979Z,2.47
2023-06-29T11:01:05.547Z,2.08
2023-06-29T11:03:32.756Z,2.30
2023-06-29T11:06:02.963Z,2.42
2023-06-29T11:08:31.818Z,2.45
2023-06-29T11:11:14.337Z,2.33
2023-06-29T11:13:40.910Z,2.70
2023-06-29T11:16:07.564Z,2.20
2023-06-29T11:18:34.050Z,2.95
2023-06-29T11:21:01.386Z,3.13
2023-06-29T11:23:27.949Z,2.63
2023-06-29T11:25:54.454Z,2.78
2023-06-29T11:28:21.236Z,2.75
2023-06-29T11:33:35.334Z,2.42
2023-06-29T11:36:02.347Z,2.35
2023-06-29T11:38:29.207Z,2.22
2023-06-29T11:41:06.052Z,2.25
2023-06-29T11:43:33.159Z,2.42
2023-06-29T11:46:00.118Z,2.30
2023-06-29T11:48:30.564Z,2.30
2023-06-29T11:51:00.429Z,2.17
2023-06-29T11:53:27.105Z,2.40
2023-06-29T11:55:54.819Z,2.78
2023-06-29T11:58:21.461Z,2.40
2023-06-29T12:00:56.694Z,2.20
2023-06-29T12:03:24.379Z,2.45
2023-06-29T12:05:52.037Z,2.25
2023-06-29T12:08:21.554Z,1.80
2023-06-29T12:10:48.338Z,2.38
2023-06-29T12:13:14.852Z,2.10
2023-06-29T12:17:59.175Z,2.30
2023-06-29T12:18:32.517Z,2.75
2023-06-29T12:23:29.034Z,2.17
2023-06-29T12:25:55.908Z,2.20
2023-06-29T12:28:23.024Z,2.22
2023-06-29T12:30:49.628Z,2.38
2023-06-29T12:33:16.192Z,2.10
2023-06-29T12:35:45.520Z,2.33
2023-06-29T12:38:12.477Z,2.03
2023-06-29T12:40:39.277Z,2.03
2023-06-29T12:43:06.053Z,2.10
2023-06-29T12:45:32.734Z,2.28
2023-06-29T12:47:59.238Z,1.85
2023-06-29T12:50:25.826Z,2.25
2023-06-29T12:52:52.695Z,2.40
2023-06-29T12:55:19.245Z,2.17
2023-06-29T12:57:46.037Z,2.63
2023-06-29T13:00:13.591Z,2.13
2023-06-29T13:02:40.716Z,2.45
2023-06-29T13:05:07.816Z,2.42
2023-06-29T13:07:35.818Z,2.47
2023-06-29T13:10:04.350Z,2.38
2023-06-29T13:12:31.498Z,2.08
2023-06-29T13:14:59.077Z,2.10
2023-06-29T13:17:26.041Z,2.28
2023-06-29T13:19:52.601Z,2.30
2023-06-29T13:22:19.541Z,2.50
2023-06-29T13:24:48.075Z,2.60
2023-06-29T13:27:14.781Z,2.88
2023-06-29T13:29:41.880Z,2.30
2023-06-29T13:32:08.990Z,1.75
2023-06-29T13:34:35.630Z,2.33
2023-06-29T13:37:02.683Z,2.15
2023-06-29T13:39:29.728Z,5.60
2023-06-29T13:41:56.470Z,2.58
2023-06-29T13:44:23.072Z,2.42
2023-06-29T13:46:49.669Z,2.50
2023-06-29T13:49:16.764Z,2.33
2023-06-29T13:51:43.721Z,2.70
2023-06-29T13:54:10.357Z,2.17
2023-06-29T13:56:38.956Z,2.20
2023-06-29T13:59:10.605Z,2.17
2023-06-29T14:01:38.752Z,2.10
2023-06-29T14:04:06.832Z,2.78
2023-06-29T14:06:39.172Z,2.20
2023-06-29T14:09:07.145Z,2.30
2023-06-29T14:11:34.037Z,2.30
2023-06-29T14:14:00.748Z,2.40
2023-06-29T14:16:28.952Z,2.75
2023-06-29T14:18:55.624Z,2.10
2023-06-29T14:21:22.679Z,2.25
2023-06-29T14:23:49.378Z,1.90
2023-06-29T14:26:16.755Z,1.90
2023-06-29T14:28:43.951Z,2.38
2023-06-29T14:31:10.737Z,2.67
2023-06-29T14:33:37.571Z,2.30
2023-06-29T14:36:06.161Z,2.40
2023-06-29T14:38:32.890Z,2.28
2023-06-29T14:41:03.053Z,2.70
2023-06-29T14:43:30.448Z,2.50
2023-06-29T14:45:57.552Z,2.00
2023-06-29T14:48:24.915Z,2.50
2023-06-29T14:50:52.852Z,3.13
2023-06-29T14:53:23.531Z,2.35
2023-06-29T14:55:50.611Z,2.17
2023-06-29T14:58:17.818Z,2.15
2023-06-29T15:00:44.533Z,2.33
2023-06-29T15:03:11.253Z,2.60
2023-06-29T15:05:37.943Z,2.05
2023-06-29T15:08:04.704Z,2.72
2023-06-29T15:10:31.334Z,2.38
2023-06-29T15:12:57.853Z,2.40
2023-06-29T15:15:24.480Z,2.28
2023-06-29T15:17:51.396Z,2.40
2023-06-29T15:20:19.070Z,2.13
2023-06-29T15:22:46.114Z,2.35
2023-06-29T15:25:12.891Z,1.85
2023-06-29T15:27:39.922Z,2.33
2023-06-29T15:30:06.901Z,2.30
2023-06-29T15:32:33.656Z,2.33
2023-06-29T15:35:02.215Z,2.38
2023-06-29T15:37:28.752Z,2.47
2023-06-29T15:39:55.361Z,2.38
2023-06-29T15:42:22.103Z,2.30
2023-06-29T15:44:48.668Z,2.53
2023-06-29T15:47:15.180Z,2.70
2023-06-29T15:49:42.014Z,2.35
2023-06-29T15:52:09.270Z,2.20
2023-06-29T15:54:35.938Z,2.53
2023-06-29T15:57:02.478Z,2.35
2023-06-29T15:59:28.930Z,2.55
2023-06-29T16:01:55.488Z,2.50
2023-06-29T16:04:23.451Z,2.90
2023-06-29T16:06:50.114Z,2.60
2023-06-29T16:09:16.888Z,2.72
2023-06-29T16:11:43.397Z,2.20
2023-06-29T16:14:10.009Z,2.47
2023-06-29T16:16:36.742Z,2.70
2023-06-29T16:19:03.438Z,2.28
2023-06-29T16:21:29.957Z,2.45
2023-06-29T16:23:56.527Z,2.40
2023-06-29T16:26:23.120Z,2.63
2023-06-29T16:28:49.778Z,2.60
2023-06-29T16:31:16.417Z,2.75
2023-06-29T16:33:42.999Z,2.55
2023-06-29T16:36:09.574Z,2.65
2023-06-29T16:38:36.105Z,2.38
2023-06-29T16:41:02.642Z,2.45
2023-06-29T16:43:29.101Z,2.72
2023-06-29T16:45:56.729Z,2.90
2023-06-29T16:48:23.211Z,2.42
2023-06-29T16:50:49.742Z,2.72
2023-06-29T16:53:16.385Z,2.90
2023-06-29T16:55:43.124Z,3.50
2023-06-29T16:58:09.813Z,2.35
2023-06-29T17:00:36.283Z,2.75
2023-06-29T17:03:02.890Z,2.45
2023-06-29T17:05:30.637Z,2.30
2023-06-29T17:07:57.441Z,2.72
2023-06-29T17:10:24.066Z,2.00
2023-06-29T17:12:52.102Z,2.75
2023-06-29T17:15:19.426Z,3.30
2023-06-29T17:17:46.713Z,3.35
2023-06-29T17:20:13.522Z,2.90
2023-06-29T17:22:40.280Z,2.50
2023-06-29T17:25:08.423Z,2.88
2023-06-29T17:27:34.967Z,2.53
2023-06-29T17:30:01.557Z,2.70
2023-06-29T17:32:28.197Z,2.60
2023-06-29T17:34:54.731Z,2.40
2023-06-29T17:37:21.212Z,3.10
2023-06-29T17:39:47.734Z,2.42
2023-06-29T17:42:21.605Z,3.00
2023-06-29T17:44:49.322Z,2.63
2023-06-29T17:47:16.003Z,2.70
2023-06-29T17:49:43.546Z,2.60
2023-06-29T17:52:10.559Z,2.60
2023-06-29T17:54:37.132Z,2.58
2023-06-29T17:57:04.800Z,2.67
2023-06-29T17:59:31.270Z,2.55
2023-06-29T18:01:57.850Z,2.10
2023-06-29T18:04:24.616Z,2.65
2023-06-29T18:06:51.473Z,2.97
2023-06-29T18:09:17.992Z,2.80
2023-06-29T18:11:44.501Z,2.40
2023-06-29T18:14:10.986Z,3.20
2023-06-29T18:16:37.581Z,2.83
2023-06-29T18:19:04.135Z,3.03
2023-06-29T18:21:30.601Z,2.30
2023-06-29T18:23:57.157Z,2.60
2023-06-29T18:26:23.790Z,2.92
2023-06-29T18:28:50.332Z,2.42
2023-06-29T18:31:16.993Z,2.75
2023-06-29T18:33:43.572Z,2.80
2023-06-29T18:36:10.233Z,2.78
2023-06-29T18:38:36.862Z,2.63
2023-06-29T18:41:03.475Z,2.38
2023-06-29T18:43:30.004Z,2.63
2023-06-29T18:45:56.502Z,2.65
2023-06-29T18:48:23.071Z,2.20
2023-06-29T18:50:49.541Z,2.25
2023-06-29T18:53:16.087Z,2.47
2023-06-29T18:55:42.570Z,2.40
2023-06-29T18:58:09.090Z,2.40
2023-06-29T19:00:36.795Z,2.70
2023-06-29T19:03:03.504Z,2.80
2023-06-29T19:05:30.813Z,2.90
2023-06-29T19:07:57.370Z,2.85
2023-06-29T19:10:23.930Z,2.90
2023-06-29T19:12:50.513Z,3.08
2023-06-29T19:15:16.973Z,3.13
2023-06-29T19:17:43.523Z,2.80
2023-06-29T19:20:10.850Z,2.72
2023-06-29T19:22:37.379Z,2.35
2023-06-29T19:25:04.234Z,2.85
2023-06-29T19:27:30.755Z,3.00
2023-06-29T19:29:57.230Z,2.50
2023-06-29T19:32:23.721Z,2.80
2023-06-29T19:34:51.447Z,4.82
2023-06-29T19:37:18.280Z,6.93
2023-06-29T19:39:44.897Z,3.47
2023-06-29T19:42:11.396Z,2.53
2023-06-29T19:44:37.838Z,2.75
2023-06-29T19:47:04.525Z,2.88
2023-06-29T19:49:31.026Z,2.97
2023-06-29T19:51:58.967Z,2.80
2023-06-29T19:54:25.832Z,2.78
2023-06-29T19:56:52.426Z,4.38
2023-06-29T19:59:19.041Z,2.63
2023-06-29T20:01:45.578Z,2.90
2023-06-29T20:04:12.230Z,2.85
2023-06-29T20:06:38.854Z,2.78
2023-06-29T20:09:05.514Z,2.72
2023-06-29T20:11:32.088Z,2.97
2023-06-29T20:13:58.657Z,2.90
2023-06-29T20:16:25.210Z,3.60
2023-06-29T20:18:52.445Z,3.15
2023-06-29T20:21:19.052Z,2.78
2023-06-29T20:23:51.194Z,2.90
2023-06-29T20:26:18.701Z,2.97
2023-06-29T20:28:45.505Z,3.10
2023-06-29T20:31:12.133Z,2.80
2023-06-29T20:33:38.697Z,2.85
2023-06-29T20:36:05.308Z,2.80
2023-06-29T20:38:31.841Z,3.25
2023-06-29T20:40:58.381Z,3.28
2023-06-29T20:43:24.888Z,3.28
2023-06-29T20:45:52.307Z,2.80
2023-06-29T20:48:19.077Z,3.45
2023-06-29T20:50:45.555Z,3.20
2023-06-29T20:53:12.077Z,3.00
2023-06-29T20:55:38.654Z,3.08
2023-06-29T20:58:05.360Z,3.25
2023-06-29T21:00:33.807Z,2.95
2023-06-29T21:03:00.280Z,4.10
2023-06-29T21:05:27.443Z,3.15
2023-06-29T21:07:54.273Z,3.30
2023-06-29T21:10:21.049Z,3.30
2023-06-29T21:12:49.408Z,3.25
2023-06-29T21:15:16.096Z,3.22
2023-06-29T21:17:42.703Z,3.05
2023-06-29T21:20:09.770Z,2.92
2023-06-29T21:22:36.830Z,3.33
2023-06-29T21:25:03.900Z,3.42
2023-06-29T21:27:31.752Z,3.05
2023-06-29T21:29:58.598Z,3.17
2023-06-29T21:32:25.340Z,3.92
2023-06-29T21:34:52.169Z,3.17
2023-06-29T21:37:20.895Z,3.00
2023-06-29T21:39:47.380Z,3.03
2023-06-29T21:42:14.184Z,3.35
2023-06-29T21:44:40.663Z,3.38
2023-06-29T21:47:07.412Z,3.78
2023-06-29T21:49:34.247Z,3.20
2023-06-29T21:52:00.772Z,3.45
2023-06-29T21:54:27.271Z,3.50
2023-06-29T21:56:53.810Z,3.40
2023-06-29T21:59:20.339Z,3.65
2023-06-29T22:01:47.022Z,3.08
2023-06-29T22:04:13.694Z,3.15
2023-06-29T22:06:41.076Z,3.33
2023-06-29T22:09:07.808Z,2.83
2023-06-29T22:11:34.384Z,4.47
2023-06-29T22:14:01.114Z,3.40
2023-06-29T22:16:29.720Z,3.58
2023-06-29T22:18:56.793Z,3.55
2023-06-29T22:21:25.135Z,3.13
2023-06-29T22:23:53.029Z,3.50
2023-06-29T22:26:20.193Z,3.30
2023-06-29T22:28:46.816Z,3.75
2023-06-29T22:31:17.947Z,3.38
2023-06-29T22:33:45.398Z,3.85
2023-06-29T22:36:12.260Z,3.35
2023-06-29T22:38:38.765Z,3.55
2023-06-29T22:41:08.235Z,3.92
2023-06-29T22:43:34.860Z,3.97
2023-06-29T22:46:01.552Z,3.25
2023-06-29T22:48:28.120Z,4.53
2023-06-29T22:50:58.245Z,3.60
2023-06-29T22:53:24.980Z,3.42
2023-06-29T22:55:51.590Z,3.78
2023-06-29T22:58:24.831Z,3.92
2023-06-29T23:00:53.159Z,3.67
2023-06-29T23:03:20.835Z,3.53
2023-06-29T23:05:48.339Z,3.28
2023-06-29T23:08:16.459Z,3.65
2023-06-29T23:10:43.187Z,3.60
2023-06-29T23:13:17.115Z,3.30
2023-06-29T23:15:45.125Z,4.07
2023-06-29T23:18:12.702Z,3.58
2023-06-29T23:20:44.496Z,4.05
2023-06-29T23:23:13.767Z,3.30
2023-06-29T23:25:42.446Z,4.20
2023-06-29T23:28:09.064Z,4.10
2023-06-29T23:30:36.490Z,3.35
2023-06-29T23:33:03.265Z,4.10
2023-06-29T23:35:29.769Z,3.83
2023-06-29T23:37:56.210Z,4.25
2023-06-29T23:40:22.796Z,3.80
2023-06-29T23:42:50.979Z,3.30
2023-06-29T23:45:17.518Z,3.90
2023-06-29T23:47:44.269Z,3.83
2023-06-29T23:50:14.337Z,3.30
2023-06-29T23:52:41.932Z,3.70
2023-06-29T23:55:10.234Z,3.92
2023-06-29T23:57:36.877Z,3.38
